Time;durP1;ratioP1;P1;durP2;ratioP2;P2;SDS_P1;SDS_P2;PMS_P1;PMS_P2;Temp;Humidity;BMP_temperature;BMP_pressure;BME280_temperature;BME280_humidity;BME280_pressure;Samples;Min_cycle;Max_cycle;Signal;HPM_P1;HPM_P2
2022/04/11 04:00:16;;;;;;;6.25;2.75;;;1.80;99.90;;;;;;5969128;23;21856;-69
2022/04/11 04:02:43;;;;;;;2.53;2.33;;;1.80;99.90;;;;;;4973848;28;20337;-69
2022/04/11 04:05:10;;;;;;;2.88;2.50;;;1.80;99.90;;;;;;4983186;28;20228;-71
2022/04/11 04:07:37;;;;;;;2.70;2.50;;;1.70;99.90;;;;;;4975170;28;20204;-70
2022/04/11 04:10:05;;;;;;;2.95;2.50;;;1.70;99.90;;;;;;4988335;28;20251;-69
2022/04/11 04:12:32;;;;;;;3.20;2.33;;;1.70;99.90;;;;;;4989428;28;20233;-68
2022/04/11 04:14:59;;;;;;;2.80;2.60;;;1.70;99.90;;;;;;4983118;28;20201;-70
2022/04/11 04:17:27;;;;;;;3.10;2.90;;;1.60;99.90;;;;;;4969987;28;20205;-69
2022/04/11 04:19:54;;;;;;;5.75;2.45;;;1.60;99.90;;;;;;4985465;28;20230;-68
2022/04/11 04:22:21;;;;;;;2.17;2.08;;;1.60;99.90;;;;;;4981458;28;20323;-67
2022/04/11 04:24:48;;;;;;;2.30;2.20;;;1.60;99.90;;;;;;4985648;28;20200;-67
2022/04/11 04:27:15;;;;;;;2.88;2.10;;;1.60;99.90;;;;;;4981451;28;20678;-70
2022/04/11 04:29:41;;;;;;;3.78;2.42;;;1.60;99.90;;;;;;4985177;28;20207;-69
2022/04/11 04:32:09;;;;;;;4.85;3.25;;;1.60;99.90;;;;;;4984455;28;20225;-68
2022/04/11 04:34:37;;;;;;;3.70;2.45;;;1.60;99.90;;;;;;4983758;28;20286;-68
2022/04/11 04:37:04;;;;;;;8.15;3.15;;;1.60;99.90;;;;;;4988330;28;20213;-68
2022/04/11 04:39:31;;;;;;;3.10;2.25;;;1.60;99.90;;;;;;4984248;28;20725;-71
2022/04/11 04:41:58;;;;;;;2.83;2.63;;;1.60;99.90;;;;;;4988507;28;20233;-70
2022/04/11 04:44:24;;;;;;;3.72;3.38;;;1.60;99.90;;;;;;4983359;28;20255;-68
2022/04/11 04:46:51;;;;;;;3.10;2.80;;;1.60;99.90;;;;;;4982329;28;20215;-70
2022/04/11 04:49:18;;;;;;;2.92;2.72;;;1.60;99.90;;;;;;4971055;28;20644;-68
2022/04/11 04:51:46;;;;;;;4.03;3.40;;;1.60;99.90;;;;;;4988256;28;20224;-69
2022/04/11 04:54:12;;;;;;;3.65;3.45;;;1.60;99.90;;;;;;4978039;28;20201;-68
2022/04/11 04:56:39;;;;;;;5.35;3.28;;;1.60;99.90;;;;;;4961878;28;20235;-68
2022/04/11 04:59:06;;;;;;;5.90;3.60;;;1.70;99.90;;;;;;4981364;28;20610;-69
2022/04/11 05:01:32;;;;;;;4.38;3.40;;;1.80;99.90;;;;;;4974526;28;20287;-68
2022/04/11 05:03:59;;;;;;;3.45;3.25;;;1.80;99.90;;;;;;4977482;28;20240;-69
2022/04/11 05:06:26;;;;;;;6.45;4.25;;;1.90;99.90;;;;;;4974106;28;20231;-68
2022/04/11 05:08:54;;;;;;;4.10;3.53;;;2.10;99.90;;;;;;4971948;28;20639;-68
2022/04/11 05:11:20;;;;;;;4.97;3.58;;;2.30;99.90;;;;;;4981996;28;20228;-68
2022/04/11 05:13:47;;;;;;;4.30;3.15;;;2.50;99.90;;;;;;4973169;28;20581;-67
2022/04/11 05:16:15;;;;;;;3.60;3.30;;;2.60;99.90;;;;;;4981309;28;20228;-71
2022/04/11 05:18:42;;;;;;;5.78;3.63;;;2.70;99.90;;;;;;4968435;28;20197;-70
2022/04/11 05:21:09;;;;;;;6.35;3.97;;;2.80;99.90;;;;;;4973275;28;20224;-68
2022/04/11 05:23:35;;;;;;;3.85;3.65;;;2.90;99.90;;;;;;4974597;28;20204;-68
2022/04/11 05:26:05;;;;;;;3.85;3.55;;;3.20;99.90;;;;;;4978022;28;20613;-71
2022/04/11 05:28:32;;;;;;;14.30;3.65;;;3.30;99.90;;;;;;4966011;28;20235;-68
2022/04/11 05:30:59;;;;;;;4.50;4.18;;;3.30;99.90;;;;;;4984157;28;20239;-69
2022/04/11 05:33:26;;;;;;;4.45;4.10;;;3.30;99.90;;;;;;4986184;28;20215;-68
2022/04/11 05:35:52;;;;;;;3.03;2.83;;;3.40;99.90;;;;;;4986316;28;20219;-70
2022/04/11 05:38:19;;;;;;;3.47;3.17;;;3.60;99.90;;;;;;4977934;28;20212;-67
2022/04/11 05:40:46;;;;;;;3.05;2.83;;;3.80;99.90;;;;;;4983787;28;20708;-69
2022/04/11 05:43:14;;;;;;;2.97;2.65;;;4.00;99.90;;;;;;4980570;28;20205;-69
2022/04/11 05:45:41;;;;;;;3.03;2.75;;;4.50;99.90;;;;;;4973124;28;20282;-68
2022/04/11 05:48:09;;;;;;;6.68;3.55;;;4.70;99.90;;;;;;4968343;28;20256;-68
2022/04/11 05:50:37;;;;;;;2.40;2.30;;;4.90;99.90;;;;;;4982279;28;20234;-68
2022/04/11 05:53:04;;;;;;;3.03;2.92;;;5.20;99.90;;;;;;4976597;28;20204;-67
2022/04/11 05:55:30;;;;;;;4.70;2.65;;;5.50;99.90;;;;;;4982691;28;20282;-67
2022/04/11 05:57:57;;;;;;;5.65;3.03;;;5.70;99.90;;;;;;4982219;28;20207;-69
2022/04/11 06:00:25;;;;;;;4.53;2.72;;;5.60;99.90;;;;;;4975993;28;20209;-67
2022/04/11 06:02:52;;;;;;;3.95;3.70;;;5.50;99.90;;;;;;4972027;28;20252;-67
2022/04/11 06:05:19;;;;;;;5.30;3.40;;;5.30;99.90;;;;;;4972690;28;20629;-69
2022/04/11 06:07:46;;;;;;;3.80;3.35;;;5.20;99.90;;;;;;4982066;28;20208;-67
2022/04/11 06:10:13;;;;;;;3.05;2.38;;;5.10;99.90;;;;;;4971422;28;20205;-68
2022/04/11 06:12:40;;;;;;;2.85;2.53;;;5.00;99.90;;;;;;4976432;28;20287;-69
2022/04/11 06:15:07;;;;;;;3.20;2.53;;;5.00;99.90;;;;;;4987826;28;20270;-67
2022/04/11 06:17:35;;;;;;;3.72;3.53;;;5.00;99.90;;;;;;4977468;28;20236;-68
2022/04/11 06:20:02;;;;;;;2.28;2.05;;;5.10;99.90;;;;;;4985829;28;20204;-67
2022/04/11 06:22:29;;;;;;;2.53;2.38;;;5.10;99.90;;;;;;4979352;28;20227;-69
2022/04/11 06:25:00;;;;;;;2.50;2.30;;;5.20;99.90;;;;;;4981296;28;20243;-69
2022/04/11 06:27:27;;;;;;;2.42;2.00;;;5.30;99.90;;;;;;4978973;28;20203;-67
2022/04/11 06:29:56;;;;;;;4.50;2.10;;;5.30;99.90;;;;;;4978414;28;20205;-68
2022/04/11 06:32:25;;;;;;;2.58;2.00;;;5.30;99.90;;;;;;4971673;28;20282;-67
2022/04/11 06:34:53;;;;;;;2.78;2.58;;;5.40;99.90;;;;;;4981913;28;20209;-67
2022/04/11 06:37:21;;;;;;;2.10;1.90;;;5.50;99.90;;;;;;4960216;28;20312;-67
2022/04/11 06:39:48;;;;;;;2.67;2.40;;;5.60;99.90;;;;;;4971286;28;20789;-67
2022/04/11 06:42:14;;;;;;;2.88;2.22;;;5.60;99.90;;;;;;4967602;28;20232;-68
2022/04/11 06:44:41;;;;;;;3.13;1.52;;;5.70;99.90;;;;;;4973582;28;20662;-67
2022/04/11 06:47:08;;;;;;;3.33;2.10;;;5.80;99.90;;;;;;4971606;28;20201;-70
2022/04/11 06:49:35;;;;;;;1.98;1.80;;;5.90;99.90;;;;;;4978343;28;20226;-67
2022/04/11 06:52:04;;;;;;;2.00;1.90;;;6.00;99.90;;;;;;4963194;28;20303;-71
2022/04/11 06:54:31;;;;;;;2.70;1.67;;;6.10;99.90;;;;;;4966254;28;20296;-67
2022/04/11 06:56:58;;;;;;;2.00;1.88;;;6.20;99.90;;;;;;4969712;28;20225;-68
2022/04/11 06:59:25;;;;;;;1.95;1.85;;;6.30;99.90;;;;;;4971769;28;20205;-68
2022/04/11 07:01:52;;;;;;;1.63;1.52;;;6.40;99.90;;;;;;4967405;28;20629;-67
2022/04/11 07:04:19;;;;;;;4.32;1.42;;;6.50;99.90;;;;;;4971299;28;20232;-68
2022/04/11 07:06:46;;;;;;;1.02;1.02;;;6.60;99.90;;;;;;4980810;28;20664;-67
2022/04/11 07:09:14;;;;;;;1.35;1.25;;;6.60;99.90;;;;;;4976917;28;20209;-70
2022/04/11 07:11:41;;;;;;;2.60;1.25;;;6.70;99.90;;;;;;4963037;28;20346;-68
2022/04/11 07:14:08;;;;;;;1.75;1.63;;;6.80;99.90;;;;;;4978209;28;20825;-67
2022/04/11 07:16:35;;;;;;;1.80;1.25;;;6.80;99.90;;;;;;4971072;28;20284;-70
2022/04/11 07:19:02;;;;;;;1.58;1.48;;;6.90;99.90;;;;;;4969103;28;20215;-67
2022/04/11 07:21:28;;;;;;;4.45;1.63;;;7.00;99.90;;;;;;4968138;28;20228;-71
2022/04/11 07:23:55;;;;;;;1.42;1.38;;;7.00;99.90;;;;;;4973123;28;20204;-68
2022/04/11 07:26:23;;;;;;;1.27;1.13;;;7.00;99.90;;;;;;4966527;28;20220;-67
2022/04/11 07:28:50;;;;;;;2.38;1.35;;;7.10;99.90;;;;;;4970984;28;20208;-67
2022/04/11 07:31:17;;;;;;;3.28;1.40;;;7.30;99.90;;;;;;4978023;28;20271;-67
2022/04/11 07:33:43;;;;;;;1.38;1.30;;;7.40;99.90;;;;;;4975838;28;20208;-68
2022/04/11 07:36:10;;;;;;;1.40;0.90;;;7.40;99.90;;;;;;4987408;28;20230;-68
2022/04/11 07:38:37;;;;;;;1.00;1.00;;;7.50;99.90;;;;;;4987579;28;20570;-67
2022/04/11 07:41:03;;;;;;;0.98;0.85;;;7.50;99.90;;;;;;4971139;28;20287;-69
2022/04/11 07:43:31;;;;;;;1.20;1.15;;;7.50;99.90;;;;;;4969695;28;20200;-66
2022/04/11 07:46:01;;;;;;;1.20;1.20;;;7.60;99.90;;;;;;4966511;28;20282;-66
2022/04/11 07:48:27;;;;;;;0.93;0.93;;;7.60;99.90;;;;;;4980057;28;20220;-67
2022/04/11 07:50:54;;;;;;;3.63;1.20;;;7.60;99.90;;;;;;4970852;28;20250;-68
2022/04/11 07:53:20;;;;;;;1.27;1.27;;;7.60;99.90;;;;;;4979339;28;20215;-66
2022/04/11 07:55:47;;;;;;;2.05;1.00;;;7.60;99.90;;;;;;4971759;28;20208;-67
2022/04/11 07:58:15;;;;;;;0.88;0.88;;;7.70;99.90;;;;;;4990048;28;20654;-68
2022/04/11 08:00:43;;;;;;;1.65;1.10;;;7.70;99.90;;;;;;4970123;28;20228;-66
2022/04/11 08:03:10;;;;;;;0.70;0.70;;;7.70;99.90;;;;;;4970677;28;20232;-68
2022/04/11 08:05:37;;;;;;;1.75;1.58;;;7.70;99.90;;;;;;4962916;28;20208;-67
2022/04/11 08:08:04;;;;;;;2.25;1.33;;;7.80;99.90;;;;;;4966688;28;20276;-66
2022/04/11 08:10:32;;;;;;;1.20;0.93;;;7.80;99.90;;;;;;4969884;28;20279;-69
2022/04/11 08:12:59;;;;;;;1.05;0.98;;;7.80;99.90;;;;;;4970345;28;20204;-68
2022/04/11 08:15:27;;;;;;;1.23;1.13;;;7.80;99.90;;;;;;4968864;28;20213;-69
2022/04/11 08:17:55;;;;;;;3.13;1.00;;;7.90;99.90;;;;;;4984624;28;20282;-69
2022/04/11 08:20:22;;;;;;;1.67;1.13;;;8.00;99.90;;;;;;4982433;28;20817;-69
2022/04/11 08:22:49;;;;;;;0.85;0.80;;;8.10;99.90;;;;;;4985037;28;20204;-67
2022/04/11 08:25:16;;;;;;;0.90;0.90;;;8.10;99.90;;;;;;4986487;28;20227;-68
2022/04/11 08:27:43;;;;;;;1.77;1.00;;;8.20;99.90;;;;;;4980908;28;20211;-69
2022/04/11 08:30:12;;;;;;;1.23;0.70;;;8.30;99.90;;;;;;4973656;28;20260;-67
2022/04/11 08:32:39;;;;;;;4.68;1.30;;;8.30;99.90;;;;;;4981695;28;20208;-67
2022/04/11 08:35:09;;;;;;;0.93;0.90;;;8.40;99.90;;;;;;4986363;28;20279;-68
2022/04/11 08:37:37;;;;;;;0.73;0.73;;;8.40;99.90;;;;;;4974524;28;20233;-67
2022/04/11 08:40:05;;;;;;;1.00;1.00;;;8.50;99.90;;;;;;4975849;28;20744;-68
2022/04/11 08:42:32;;;;;;;1.00;1.00;;;8.50;99.90;;;;;;4979326;28;20224;-68
2022/04/11 08:44:59;;;;;;;1.23;1.13;;;8.60;99.90;;;;;;4981983;28;20205;-67
2022/04/11 08:47:26;;;;;;;1.00;1.00;;;8.60;99.90;;;;;;4983678;28;20208;-68
2022/04/11 08:49:53;;;;;;;2.70;0.93;;;8.70;99.90;;;;;;4980247;28;20209;-69
2022/04/11 08:52:22;;;;;;;0.90;0.80;;;8.80;99.90;;;;;;4977681;28;20304;-67
2022/04/11 08:54:49;;;;;;;1.13;0.60;;;8.80;99.90;;;;;;4980607;28;20265;-68
2022/04/11 08:57:16;;;;;;;2.45;2.25;;;8.80;99.90;;;;;;4977665;28;20526;-69
2022/04/11 08:59:42;;;;;;;1.00;1.00;;;8.80;99.90;;;;;;4971261;28;20204;-67
2022/04/11 09:02:10;;;;;;;1.15;0.65;;;8.90;99.90;;;;;;4980619;28;20278;-68
2022/04/11 09:04:51;;;;;;;1.80;0.95;;;8.90;99.90;;;;;;4967397;28;20661;-69
2022/04/11 09:07:17;;;;;;;2.08;0.50;;;9.00;99.90;;;;;;4968752;28;20675;-70
2022/04/11 09:09:46;;;;;;;1.35;1.00;;;9.10;99.90;;;;;;4971162;28;20204;-69
2022/04/11 09:12:14;;;;;;;0.80;0.80;;;9.20;99.90;;;;;;4978027;28;20243;-67
2022/04/11 09:14:41;;;;;;;0.43;0.43;;;9.30;99.90;;;;;;4978877;28;20347;-67
2022/04/11 09:17:09;;;;;;;0.40;0.40;;;9.30;99.90;;;;;;4982044;28;20222;-70
2022/04/11 09:19:38;;;;;;;1.88;0.50;;;9.30;99.90;;;;;;4975388;28;20204;-69
2022/04/11 09:22:06;;;;;;;0.50;0.50;;;9.30;99.90;;;;;;4970778;28;20263;-69
2022/04/11 09:24:33;;;;;;;0.50;0.50;;;9.30;99.90;;;;;;4978000;28;20275;-68
2022/04/11 09:27:01;;;;;;;0.65;0.57;;;9.40;99.90;;;;;;4976113;28;20254;-70
2022/04/11 09:29:32;;;;;;;0.68;0.68;;;9.40;99.90;;;;;;4969864;28;20217;-68
2022/04/11 09:32:05;;;;;;;0.80;0.80;;;9.40;99.90;;;;;;4976586;28;20364;-67
2022/04/11 09:34:32;;;;;;;0.80;0.80;;;9.50;99.90;;;;;;4981554;28;20255;-68
2022/04/11 09:37:02;;;;;;;0.40;0.40;;;9.60;99.90;;;;;;4973739;28;20658;-68
2022/04/11 09:39:31;;;;;;;1.83;0.60;;;9.70;99.90;;;;;;4973390;28;20209;-69
2022/04/11 09:41:58;;;;;;;1.13;1.08;;;9.80;99.90;;;;;;4979368;28;20302;-68
2022/04/11 09:44:28;;;;;;;1.67;0.75;;;9.80;99.90;;;;;;4971322;28;20300;-69
2022/04/11 09:46:58;;;;;;;1.58;1.58;;;9.80;99.90;;;;;;4978213;28;20244;-69
2022/04/11 09:49:25;;;;;;;0.77;0.77;;;9.80;99.90;;;;;;4974098;28;20263;-69
2022/04/11 09:52:06;;;;;;;1.42;0.70;;;9.80;99.90;;;;;;4976967;28;20220;-67
2022/04/11 09:54:33;;;;;;;0.80;0.80;;;9.90;99.90;;;;;;4970582;28;20209;-68
2022/04/11 09:57:02;;;;;;;0.93;0.88;;;9.90;99.90;;;;;;4979340;28;20223;-68
2022/04/11 09:59:30;;;;;;;1.60;0.68;;;10.00;99.90;;;;;;4979310;28;20212;-67
2022/04/11 10:01:57;;;;;;;1.00;0.75;;;10.10;99.90;;;;;;4978829;28;20280;-71
2022/04/11 10:04:25;;;;;;;1.30;0.80;;;10.20;99.90;;;;;;4976367;28;20323;-67
2022/04/11 10:06:53;;;;;;;3.22;0.90;;;10.20;99.70;;;;;;4970996;28;20207;-66
2022/04/11 10:09:22;;;;;;;0.60;0.60;;;10.30;99.50;;;;;;4970848;28;20208;-69
2022/04/11 10:11:49;;;;;;;1.40;1.30;;;10.40;98.40;;;;;;4978786;28;20224;-68
2022/04/11 10:14:17;;;;;;;0.73;0.70;;;10.30;98.30;;;;;;4978968;28;20205;-69
2022/04/11 10:16:45;;;;;;;0.43;0.43;;;10.40;98.40;;;;;;4972920;28;20200;-68
2022/04/11 10:19:12;;;;;;;1.15;0.90;;;10.50;98.20;;;;;;4964196;28;20217;-68
2022/04/11 10:21:42;;;;;;;1.00;0.80;;;10.50;98.70;;;;;;4957290;28;20231;-67
2022/04/11 10:24:17;;;;;;;1.15;1.10;;;10.50;99.00;;;;;;4968000;28;20615;-69
2022/04/11 10:26:46;;;;;;;0.90;0.90;;;10.60;98.90;;;;;;4972829;28;20621;-69
2022/04/11 10:29:31;;;;;;;2.78;0.73;;;10.70;98.50;;;;;;4971753;28;20212;-67
2022/04/11 10:32:07;;;;;;;1.75;0.98;;;10.90;98.20;;;;;;4984972;28;20310;-69
2022/04/11 10:34:56;;;;;;;1.10;1.00;;;11.00;98.00;;;;;;4968882;28;20211;-67
2022/04/11 10:37:26;;;;;;;1.50;1.40;;;10.90;97.30;;;;;;4983573;28;20232;-67
2022/04/11 10:39:54;;;;;;;1.20;1.05;;;11.00;97.60;;;;;;4975384;28;20212;-67
2022/04/11 10:42:25;;;;;;;1.08;1.08;;;10.90;97.30;;;;;;4972460;28;20337;-68
2022/04/11 10:44:54;;;;;;;1.05;0.93;;;10.90;97.30;;;;;;4978888;28;20270;-66
2022/04/11 10:47:33;;;;;;;1.00;0.70;;;10.90;96.70;;;;;;4966603;28;20654;-67
2022/04/11 10:50:23;;;;;;;1.20;1.20;;;11.00;96.80;;;;;;4982484;28;20198;-70
2022/04/11 10:53:08;;;;;;;1.05;1.00;;;11.00;96.90;;;;;;4977423;28;20215;-67
2022/04/11 10:55:35;;;;;;;0.60;0.60;;;11.10;97.00;;;;;;4983704;28;20205;-68
2022/04/11 10:58:03;;;;;;;0.60;0.60;;;11.20;95.80;;;;;;4975030;28;20233;-68
2022/04/11 11:00:31;;;;;;;0.68;0.68;;;11.20;95.80;;;;;;4973789;28;20297;-67
2022/04/11 11:03:20;;;;;;;1.08;1.08;;;11.20;95.80;;;;;;4971299;28;20239;-66
2022/04/11 11:05:49;;;;;;;1.02;0.90;;;11.40;96.30;;;;;;4978674;28;20617;-66
2022/04/11 11:08:27;;;;;;;0.75;0.65;;;11.30;96.10;;;;;;4981328;28;20235;-68
2022/04/11 11:10:56;;;;;;;0.88;0.60;;;11.20;96.10;;;;;;4975146;28;20634;-67
2022/04/11 11:13:27;;;;;;;1.65;0.75;;;11.00;95.40;;;;;;4972183;28;20212;-68
2022/04/11 11:15:55;;;;;;;0.95;0.85;;;10.90;95.10;;;;;;4978429;28;20691;-68
2022/04/11 11:18:23;;;;;;;1.10;1.10;;;10.80;95.60;;;;;;4967822;28;20296;-69
2022/04/11 11:20:54;;;;;;;1.33;1.17;;;10.80;96.50;;;;;;4976160;28;20535;-67
2022/04/11 11:23:25;;;;;;;0.85;0.85;;;10.90;96.00;;;;;;4971028;28;20211;-66
2022/04/11 11:25:53;;;;;;;0.65;0.65;;;11.00;95.30;;;;;;4963390;28;20378;-67
2022/04/11 11:28:20;;;;;;;1.33;1.23;;;10.90;94.00;;;;;;4957621;28;20211;-66
2022/04/11 11:30:47;;;;;;;0.93;0.60;;;10.90;93.90;;;;;;4975087;28;20225;-67
2022/04/11 11:33:17;;;;;;;1.00;1.00;;;10.90;93.50;;;;;;4971488;28;20299;-68
2022/04/11 11:35:50;;;;;;;1.20;0.88;;;11.00;92.90;;;;;;4972418;28;20464;-74
2022/04/11 11:38:22;;;;;;;1.25;0.82;;;11.00;92.90;;;;;;4978655;28;20231;-67
2022/04/11 11:40:56;;;;;;;1.20;1.20;;;11.00;94.10;;;;;;4975519;28;20246;-67
2022/04/11 11:43:23;;;;;;;1.75;1.00;;;11.00;95.20;;;;;;4968683;28;20241;-66
2022/04/11 11:45:51;;;;;;;1.25;0.80;;;11.00;94.40;;;;;;4983810;28;20271;-66
2022/04/11 11:48:22;;;;;;;0.77;0.77;;;11.10;94.30;;;;;;4994427;28;20200;-67
2022/04/11 11:50:51;;;;;;;0.70;0.70;;;11.10;94.20;;;;;;4973889;28;20224;-66
2022/04/11 11:53:19;;;;;;;0.65;0.65;;;11.10;93.20;;;;;;4974189;28;20204;-67
2022/04/11 11:55:57;;;;;;;1.63;1.30;;;11.10;93.30;;;;;;4974858;28;20308;-68
2022/04/11 11:58:33;;;;;;;0.70;0.70;;;11.20;93.60;;;;;;4974181;28;20304;-67
2022/04/11 12:01:00;;;;;;;0.85;0.85;;;11.30;94.00;;;;;;4970405;28;20811;-67
2022/04/11 12:06:12;;;;;;;1.00;1.00;;;11.30;93.90;;;;;;4994179;28;20620;-67
2022/04/11 12:08:39;;;;;;;0.60;0.60;;;11.30;93.70;;;;;;4974842;28;20241;-66
2022/04/11 12:11:06;;;;;;;0.75;0.75;;;11.30;94.20;;;;;;4973087;28;20235;-67
2022/04/11 12:13:34;;;;;;;4.00;1.00;;;11.40;93.70;;;;;;4974044;28;20216;-67
2022/04/11 12:16:08;;;;;;;1.48;1.13;;;11.40;93.60;;;;;;4974385;28;20205;-72
2022/04/11 12:18:48;;;;;;;0.98;0.98;;;11.50;94.50;;;;;;4973732;28;20560;-69
2022/04/11 12:21:17;;;;;;;1.23;1.23;;;11.60;93.80;;;;;;4978442;28;20228;-67
2022/04/11 12:23:48;;;;;;;1.02;1.00;;;11.60;92.70;;;;;;4992938;28;20574;-67
2022/04/11 12:26:27;;;;;;;0.75;0.75;;;11.60;93.70;;;;;;4993365;28;20270;-67
2022/04/11 12:28:54;;;;;;;1.00;0.97;;;11.70;93.20;;;;;;4993029;28;20204;-68
2022/04/11 12:31:22;;;;;;;0.90;0.90;;;11.80;92.30;;;;;;4974880;28;20479;-68
2022/04/11 12:33:50;;;;;;;1.08;1.08;;;11.80;93.00;;;;;;4974131;28;20208;-67
2022/04/11 12:36:20;;;;;;;0.82;0.80;;;12.00;94.00;;;;;;4974188;28;20509;-69
2022/04/11 12:38:52;;;;;;;1.35;1.13;;;12.10;93.00;;;;;;4970719;28;20217;-68
2022/04/11 12:41:35;;;;;;;0.85;0.85;;;12.10;92.80;;;;;;4970438;28;20225;-68
2022/04/11 12:44:11;;;;;;;1.15;1.15;;;12.10;92.70;;;;;;4973356;28;20208;-69
2022/04/11 12:46:39;;;;;;;0.85;0.85;;;12.00;92.60;;;;;;4973689;28;20211;-68
2022/04/11 12:49:07;;;;;;;1.30;1.30;;;12.00;92.60;;;;;;4972607;28;20212;-67
2022/04/11 12:51:35;;;;;;;1.27;1.17;;;12.00;92.70;;;;;;4975995;28;20228;-68
2022/04/11 12:54:07;;;;;;;1.90;1.00;;;12.10;92.80;;;;;;4992490;28;20564;-67
2022/04/11 12:56:42;;;;;;;0.82;0.82;;;12.00;91.20;;;;;;4979881;28;20953;-67
2022/04/11 12:59:09;;;;;;;1.02;1.02;;;11.90;91.80;;;;;;4972940;28;20279;-67
2022/04/11 13:01:53;;;;;;;0.82;0.82;;;11.90;91.70;;;;;;4970799;28;20236;-68
2022/04/11 13:04:20;;;;;;;1.10;0.88;;;12.00;92.00;;;;;;4973418;28;20197;-68
2022/04/11 13:06:50;;;;;;;1.10;0.82;;;12.00;92.60;;;;;;4973475;28;20678;-67
2022/04/11 13:09:17;;;;;;;1.23;1.05;;;12.10;92.80;;;;;;4972618;28;20268;-68
2022/04/11 13:11:46;;;;;;;1.00;1.00;;;12.20;92.20;;;;;;4954481;28;20284;-67
2022/04/11 13:14:13;;;;;;;2.35;0.88;;;12.20;91.50;;;;;;4953667;28;20465;-67
2022/04/11 13:19:24;;;;;;;1.33;0.68;;;12.20;91.50;;;;;;4970599;28;20482;-70
2022/04/11 13:21:52;;;;;;;1.15;0.80;;;12.20;90.90;;;;;;4972462;28;20275;-68
2022/04/11 13:24:19;;;;;;;1.00;1.00;;;12.10;90.40;;;;;;4972342;28;20212;-68
2022/04/11 13:26:47;;;;;;;1.02;1.02;;;12.10;90.50;;;;;;4973316;28;20299;-68
2022/04/11 13:29:14;;;;;;;0.90;0.90;;;12.10;90.60;;;;;;4972628;28;20209;-66
2022/04/11 13:31:41;;;;;;;1.43;1.40;;;12.10;90.80;;;;;;4955245;28;20485;-67
2022/04/11 13:34:08;;;;;;;0.90;0.90;;;12.20;91.60;;;;;;4953480;28;20461;-69
2022/04/11 13:36:35;;;;;;;0.90;0.90;;;12.30;90.80;;;;;;4953342;28;20268;-68
2022/04/11 13:39:03;;;;;;;1.00;1.00;;;12.20;90.70;;;;;;4952568;28;20488;-67
2022/04/11 13:41:32;;;;;;;0.85;0.85;;;12.20;91.40;;;;;;4968004;28;20483;-69
2022/04/11 13:43:59;;;;;;;1.85;1.05;;;12.30;91.60;;;;;;4972309;28;20275;-66
2022/04/11 13:46:26;;;;;;;2.50;1.17;;;12.30;92.10;;;;;;4972552;28;20271;-67
2022/04/11 13:48:54;;;;;;;1.40;1.30;;;12.40;91.40;;;;;;4972411;28;20460;-68
2022/04/11 13:51:21;;;;;;;1.17;1.08;;;12.30;91.10;;;;;;4959391;28;20233;-69
2022/04/11 13:53:47;;;;;;;1.00;1.00;;;12.20;90.30;;;;;;4989557;28;20290;-69
2022/04/11 13:56:16;;;;;;;2.10;1.23;;;12.20;90.30;;;;;;4982566;28;20471;-66
2022/04/11 13:58:42;;;;;;;0.82;0.82;;;12.20;90.80;;;;;;4971889;28;20492;-67
2022/04/11 14:01:09;;;;;;;1.50;1.10;;;12.30;90.30;;;;;;4971057;28;20290;-69
2022/04/11 14:03:36;;;;;;;1.27;1.07;;;12.30;89.50;;;;;;4971768;28;20890;-69
2022/04/11 14:06:03;;;;;;;2.95;1.00;;;12.30;90.40;;;;;;4972661;28;20554;-68
2022/04/11 14:08:30;;;;;;;1.20;1.20;;;12.40;90.40;;;;;;4971124;28;20283;-68
2022/04/11 14:10:57;;;;;;;1.33;1.30;;;12.40;89.90;;;;;;4972477;28;20228;-68
2022/04/11 14:13:25;;;;;;;1.20;1.20;;;12.30;90.30;;;;;;4974703;28;20204;-67
2022/04/11 14:15:51;;;;;;;1.65;1.40;;;12.30;91.20;;;;;;4972447;28;20209;-68
2022/04/11 14:18:18;;;;;;;1.30;1.30;;;12.30;91.50;;;;;;4971874;28;20752;-68
2022/04/11 14:20:45;;;;;;;1.15;1.10;;;12.30;91.70;;;;;;4970716;28;20228;-67
2022/04/11 14:23:12;;;;;;;1.40;1.30;;;12.20;91.60;;;;;;4971666;28;20208;-67
2022/04/11 14:25:38;;;;;;;1.50;1.48;;;12.30;91.30;;;;;;4972309;28;20216;-67
2022/04/11 14:28:07;;;;;;;1.17;1.17;;;12.30;91.40;;;;;;4971620;28;20255;-69
2022/04/11 14:30:36;;;;;;;2.87;1.40;;;12.40;91.40;;;;;;4969634;28;20303;-68
2022/04/11 14:33:03;;;;;;;1.70;0.90;;;12.50;91.70;;;;;;4978000;28;21328;-67
2022/04/11 14:35:29;;;;;;;0.70;0.70;;;12.60;92.60;;;;;;4978994;28;20212;-68
2022/04/11 14:37:57;;;;;;;1.00;1.00;;;12.60;92.20;;;;;;4990672;28;20453;-69
2022/04/11 14:40:24;;;;;;;2.37;1.40;;;12.50;92.30;;;;;;4966406;28;20527;-69
2022/04/11 14:42:52;;;;;;;2.33;1.70;;;12.50;91.50;;;;;;4971118;28;20483;-68
2022/04/11 14:45:19;;;;;;;1.30;1.30;;;12.50;91.30;;;;;;4977334;28;20462;-67
2022/04/11 14:47:47;;;;;;;1.10;1.10;;;12.50;91.10;;;;;;4979850;28;20947;-67
2022/04/11 14:50:14;;;;;;;1.10;1.10;;;12.40;91.00;;;;;;4977746;28;20555;-68
2022/04/11 14:52:41;;;;;;;0.93;0.93;;;12.40;91.10;;;;;;4978848;28;20228;-68
2022/04/11 14:55:09;;;;;;;1.88;1.40;;;12.30;90.60;;;;;;4986791;28;20521;-67
2022/04/11 14:57:35;;;;;;;1.05;1.00;;;12.30;91.00;;;;;;4983941;28;20212;-67
2022/04/11 15:00:03;;;;;;;1.30;1.30;;;12.20;91.60;;;;;;4987398;28;20232;-69
2022/04/11 15:02:30;;;;;;;1.30;1.23;;;12.20;91.50;;;;;;4970523;28;20590;-68
2022/04/11 15:04:58;;;;;;;1.15;1.15;;;12.20;90.70;;;;;;4971603;28;20522;-69
2022/04/11 15:07:25;;;;;;;1.75;1.35;;;12.20;91.10;;;;;;4978876;28;20212;-69
2022/04/11 15:09:52;;;;;;;1.05;1.05;;;12.30;91.80;;;;;;4982341;28;20207;-68
2022/04/11 15:12:19;;;;;;;1.20;1.20;;;12.30;91.50;;;;;;4965582;28;20739;-71
2022/04/11 15:14:45;;;;;;;1.65;1.10;;;12.20;91.20;;;;;;4977307;28;20470;-68
2022/04/11 15:17:12;;;;;;;1.40;1.40;;;12.20;91.50;;;;;;4975501;28;20213;-70
2022/04/11 15:19:39;;;;;;;0.98;0.98;;;12.30;91.70;;;;;;4968151;28;20307;-69
2022/04/11 15:22:08;;;;;;;1.50;1.23;;;12.30;91.30;;;;;;4974324;28;20290;-69
2022/04/11 15:24:35;;;;;;;2.00;1.90;;;12.30;91.10;;;;;;4981798;28;20495;-67
2022/04/11 15:27:03;;;;;;;2.00;1.20;;;12.30;91.30;;;;;;4985446;28;20468;-69
2022/04/11 15:29:30;;;;;;;1.50;1.15;;;12.30;91.30;;;;;;4982092;28;20465;-70
2022/04/11 15:31:56;;;;;;;1.20;1.20;;;12.40;91.00;;;;;;4981463;28;20319;-69
2022/04/11 15:34:23;;;;;;;1.30;1.30;;;12.40;90.90;;;;;;4975284;28;20592;-69
2022/04/11 15:36:52;;;;;;;1.30;1.30;;;12.40;90.70;;;;;;4979778;28;20467;-70
2022/04/11 15:39:21;;;;;;;0.90;0.90;;;12.40;90.70;;;;;;4983593;28;20561;-69
2022/04/11 15:41:48;;;;;;;1.57;1.47;;;12.40;91.90;;;;;;4981158;28;20705;-70
2022/04/11 15:44:14;;;;;;;1.03;1.03;;;12.40;91.80;;;;;;4978419;28;20521;-70
2022/04/11 15:46:41;;;;;;;1.95;1.85;;;12.40;91.40;;;;;;4982683;28;20472;-68
2022/04/11 15:49:08;;;;;;;1.20;1.20;;;12.40;91.10;;;;;;4980608;28;20287;-70
2022/04/11 15:51:36;;;;;;;1.37;1.27;;;12.40;90.50;;;;;;4984876;28;20485;-69
2022/04/11 15:54:04;;;;;;;0.90;0.90;;;12.30;90.90;;;;;;4981442;28;20942;-69
2022/04/11 15:56:32;;;;;;;1.40;1.40;;;12.30;91.10;;;;;;4976763;28;20212;-70
2022/04/11 15:58:59;;;;;;;2.05;1.52;;;12.30;90.90;;;;;;4975210;28;20898;-70
2022/04/11 16:01:26;;;;;;;1.10;1.10;;;12.40;91.30;;;;;;4976136;28;20248;-68
2022/04/11 16:03:53;;;;;;;1.23;1.23;;;12.50;91.20;;;;;;4985789;28;20536;-70
2022/04/11 16:06:19;;;;;;;0.88;0.88;;;12.50;90.70;;;;;;4977765;28;20500;-69
2022/04/11 16:08:46;;;;;;;1.40;1.40;;;12.40;91.00;;;;;;4981457;28;20205;-70
2022/04/11 16:11:13;;;;;;;3.47;1.70;;;12.50;91.30;;;;;;4974319;28;20244;-69
2022/04/11 16:13:42;;;;;;;1.33;1.33;;;12.50;91.10;;;;;;4974268;28;20259;-68
2022/04/11 16:16:09;;;;;;;1.70;1.60;;;12.50;91.80;;;;;;4975567;28;20204;-70
2022/04/11 16:18:36;;;;;;;1.23;1.10;;;12.50;91.60;;;;;;4982106;28;20212;-69
2022/04/11 16:21:03;;;;;;;1.10;1.10;;;12.50;92.30;;;;;;4972579;28;20236;-69
2022/04/11 16:23:31;;;;;;;2.60;1.45;;;12.40;92.10;;;;;;4985883;28;20200;-70
2022/04/11 16:25:59;;;;;;;1.20;1.20;;;12.40;91.90;;;;;;4978056;28;20235;-69
2022/04/11 16:28:26;;;;;;;2.22;1.73;;;12.40;92.40;;;;;;4981626;28;20479;-68
2022/04/11 16:30:54;;;;;;;1.55;1.45;;;12.30;92.20;;;;;;4983321;28;20223;-69
2022/04/11 16:33:20;;;;;;;1.77;1.63;;;12.30;92.40;;;;;;4976749;28;20282;-67
2022/04/11 16:35:47;;;;;;;1.60;1.50;;;12.30;93.10;;;;;;4977079;28;20212;-68
2022/04/11 16:38:14;;;;;;;2.40;1.27;;;12.20;92.40;;;;;;4964944;28;20524;-68
2022/04/11 16:40:41;;;;;;;1.30;1.30;;;12.20;92.70;;;;;;4979034;28;20492;-69
2022/04/11 16:43:07;;;;;;;1.60;1.50;;;12.10;92.40;;;;;;4981218;28;20232;-68
2022/04/11 16:45:35;;;;;;;1.80;1.40;;;12.10;92.60;;;;;;4980338;28;20243;-69
2022/04/11 16:48:03;;;;;;;1.30;1.30;;;12.00;92.10;;;;;;4979065;28;20200;-68
2022/04/11 16:50:29;;;;;;;1.63;1.40;;;12.00;92.30;;;;;;4975577;28;20248;-68
2022/04/11 16:52:56;;;;;;;1.77;1.77;;;11.90;92.70;;;;;;4987032;28;20299;-68
2022/04/11 16:55:23;;;;;;;2.40;2.30;;;11.90;92.30;;;;;;4985139;28;20220;-68
2022/04/11 16:57:50;;;;;;;2.25;1.85;;;11.90;92.20;;;;;;4983802;28;20200;-69
2022/04/11 17:00:19;;;;;;;1.00;1.00;;;11.90;92.40;;;;;;4971077;28;20236;-69